createdAt,value
2022-12-11T00:00:25.815Z,-2.10
2022-12-11T00:02:53.202Z,-2.16
2022-12-11T00:05:19.900Z,-2.00
2022-12-11T00:07:46.625Z,-2.10
2022-12-11T00:10:13.283Z,-2.00
2022-12-11T00:12:39.931Z,-2.06
2022-12-11T00:15:07.220Z,-2.06
2022-12-11T00:17:34.062Z,-2.08
2022-12-11T00:20:00.664Z,-2.05
2022-12-11T00:22:27.270Z,-1.97
2022-12-11T00:24:53.947Z,-2.10
2022-12-11T00:27:20.518Z,-2.23
2022-12-11T00:29:47.061Z,-2.06
2022-12-11T00:32:13.656Z,-2.00
2022-12-11T00:34:40.382Z,-1.95
2022-12-11T00:37:07.080Z,-2.19
2022-12-11T00:39:33.751Z,-1.97
2022-12-11T00:42:00.723Z,-2.21
2022-12-11T00:44:27.273Z,-2.01
2022-12-11T00:46:53.826Z,-1.97
2022-12-11T00:49:20.544Z,-1.99
2022-12-11T00:51:47.109Z,-1.95
2022-12-11T00:54:14.627Z,-1.94
2022-12-11T00:56:41.210Z,-2.00
2022-12-11T00:59:07.982Z,-1.98
2022-12-11T01:01:35.015Z,-2.00
2022-12-11T01:04:01.695Z,-2.09
2022-12-11T01:06:28.720Z,-2.05
2022-12-11T01:09:14.965Z,-1.95
2022-12-11T01:11:42.929Z,-1.97
2022-12-11T01:14:10.882Z,-1.95
2022-12-11T01:16:37.691Z,-1.93
2022-12-11T01:19:04.455Z,-1.99
2022-12-11T01:21:31.202Z,-2.16
2022-12-11T01:23:57.875Z,-1.95
2022-12-11T01:26:24.539Z,-1.93
2022-12-11T01:28:51.874Z,-1.90
2022-12-11T01:31:20.029Z,-1.88
2022-12-11T01:33:46.668Z,-1.87
2022-12-11T01:36:19.497Z,-1.85
2022-12-11T01:38:47.954Z,-2.07
2022-12-11T01:41:15.536Z,-1.93
2022-12-11T01:43:59.917Z,-1.91
2022-12-11T01:46:27.759Z,-1.99
2022-12-11T01:48:55.966Z,-2.05
2022-12-11T01:51:24.032Z,-2.08
2022-12-11T01:54:00.855Z,-2.09
2022-12-11T01:56:31.725Z,-2.17
2022-12-11T01:59:06.831Z,-2.18
2022-12-11T02:02:09.164Z,-2.11
2022-12-11T02:04:38.586Z,-2.15
2022-12-11T02:07:05.847Z,-2.12
2022-12-11T02:09:35.107Z,-2.41
2022-12-11T02:12:07.704Z,-2.13
2022-12-11T02:14:49.484Z,-2.10
2022-12-11T02:17:26.144Z,-2.10
2022-12-11T02:20:15.013Z,-2.16
2022-12-11T02:23:12.193Z,-2.18
2022-12-11T02:25:57.838Z,-2.17
2022-12-11T02:28:27.356Z,-2.15
2022-12-11T02:31:10.492Z,-2.25
2022-12-11T02:33:45.749Z,-2.10
2022-12-11T02:36:18.279Z,-2.22
2022-12-11T02:38:50.751Z,-2.09
2022-12-11T02:41:19.916Z,-2.09
2022-12-11T02:43:48.215Z,-2.19
2022-12-11T02:46:17.853Z,-1.99
2022-12-11T02:48:47.379Z,-2.11
2022-12-11T02:51:16.496Z,-2.46
2022-12-11T02:53:44.758Z,-2.25
2022-12-11T02:56:16.667Z,-2.15
2022-12-11T02:58:50.685Z,-2.27
2022-12-11T03:01:20.620Z,-2.33
2022-12-11T03:03:47.796Z,-2.42
2022-12-11T03:06:18.388Z,-2.27
2022-12-11T03:08:44.877Z,-2.23
2022-12-11T03:11:12.521Z,-2.36
2022-12-11T03:13:42.592Z,-2.35
2022-12-11T03:16:17.962Z,-2.26
2022-12-11T03:18:53.736Z,-2.31
2022-12-11T03:21:30.266Z,-2.23
2022-12-11T03:24:14.703Z,-2.23
2022-12-11T03:26:54.469Z,-2.35
2022-12-11T03:29:31.811Z,-2.22
2022-12-11T03:32:04.614Z,-2.29
2022-12-11T03:34:36.851Z,-2.50
2022-12-11T03:37:05.653Z,-2.29
2022-12-11T03:39:37.822Z,-2.29
2022-12-11T03:42:09.691Z,-2.17
2022-12-11T03:44:36.923Z,-2.19
2022-12-11T03:47:07.371Z,-2.35
2022-12-11T03:49:37.616Z,-2.14
2022-12-11T03:52:06.287Z,-2.21
2022-12-11T03:54:34.963Z,-2.35
2022-12-11T03:57:04.338Z,-2.42
2022-12-11T03:59:31.490Z,-2.31
2022-12-11T04:01:58.395Z,-2.25
2022-12-11T04:04:25.499Z,-2.33
2022-12-11T04:06:52.221Z,-2.24
2022-12-11T04:09:18.887Z,-2.19
2022-12-11T04:11:45.639Z,-2.26
2022-12-11T04:14:32.998Z,-2.38
2022-12-11T04:17:00.810Z,-2.46
2022-12-11T04:19:46.585Z,-2.42
2022-12-11T04:22:34.536Z,-2.35
2022-12-11T04:25:02.425Z,-2.29
2022-12-11T04:27:49.182Z,-2.42
2022-12-11T04:30:23.444Z,-2.38
2022-12-11T04:32:50.544Z,-2.38
2022-12-11T04:35:17.755Z,-2.40
2022-12-11T04:37:44.518Z,-2.42
2022-12-11T04:40:14.222Z,-2.52
2022-12-11T04:42:41.380Z,-2.40
2022-12-11T04:45:09.725Z,-2.45
2022-12-11T04:47:38.869Z,-2.49
2022-12-11T04:50:09.150Z,-2.69
2022-12-11T04:52:35.826Z,-2.47
2022-12-11T04:55:04.993Z,-2.45
2022-12-11T04:57:31.642Z,-2.48
2022-12-11T04:59:58.216Z,-2.56
2022-12-11T05:02:24.891Z,-2.66
2022-12-11T05:04:51.479Z,-2.70
2022-12-11T05:07:18.224Z,-2.71
2022-12-11T05:09:44.775Z,-2.82
2022-12-11T05:12:11.408Z,-2.79
2022-12-11T05:14:38.088Z,-2.85
2022-12-11T05:17:04.630Z,-2.83
2022-12-11T05:19:31.366Z,-2.87
2022-12-11T05:21:57.905Z,-2.81
2022-12-11T05:24:24.486Z,-2.75
2022-12-11T05:26:51.158Z,-2.84
2022-12-11T05:29:17.696Z,-2.84
2022-12-11T05:31:44.337Z,-2.87
2022-12-11T05:34:11.142Z,-2.89
2022-12-11T05:36:37.768Z,-2.85
2022-12-11T05:39:05.001Z,-2.80
2022-12-11T05:41:32.896Z,-2.83
2022-12-11T05:44:00.217Z,-2.72
2022-12-11T05:46:29.992Z,-2.77
2022-12-11T05:49:01.984Z,-2.85
2022-12-11T05:51:29.796Z,-2.93
2022-12-11T05:53:57.804Z,-2.88
2022-12-11T05:56:30.586Z,-2.83
2022-12-11T05:58:58.250Z,-3.07
2022-12-11T06:01:27.952Z,-3.04
2022-12-11T06:03:55.954Z,-2.91
2022-12-11T06:06:24.050Z,-2.81
2022-12-11T06:08:51.916Z,-2.81
2022-12-11T06:11:23.790Z,-2.87
2022-12-11T06:13:51.894Z,-2.81
2022-12-11T06:16:19.434Z,-2.75
2022-12-11T06:18:46.384Z,-2.79
2022-12-11T06:21:25.982Z,-2.72
2022-12-11T06:23:54.816Z,-2.91
2022-12-11T06:26:22.068Z,-2.81
2022-12-11T06:28:49.529Z,-2.98
2022-12-11T06:31:17.847Z,-3.13
2022-12-11T06:33:45.040Z,-2.91
2022-12-11T06:36:17.616Z,-2.90
2022-12-11T06:38:44.929Z,-2.87
2022-12-11T06:41:12.195Z,-2.91
2022-12-11T06:43:40.389Z,-3.01
2022-12-11T06:46:09.974Z,-2.80
2022-12-11T06:48:38.081Z,-3.21
2022-12-11T06:51:09.841Z,-3.03
2022-12-11T06:53:36.891Z,-3.10
2022-12-11T06:56:05.573Z,-2.94
2022-12-11T06:58:34.582Z,-2.96
2022-12-11T07:01:03.268Z,-2.93
2022-12-11T07:03:29.975Z,-2.96
2022-12-11T07:06:02.930Z,-2.98
2022-12-11T07:08:32.086Z,-2.97
2022-12-11T07:11:12.704Z,-3.05
2022-12-11T07:13:39.292Z,-2.99
2022-12-11T07:16:10.952Z,-3.05
2022-12-11T07:18:39.362Z,-3.00
2022-12-11T07:21:07.617Z,-2.89
2022-12-11T07:23:35.291Z,-3.08
2022-12-11T07:26:09.159Z,-2.97
2022-12-11T07:28:36.264Z,-3.03
2022-12-11T07:31:11.224Z,-3.17
2022-12-11T07:33:37.846Z,-3.22
2022-12-11T07:36:06.991Z,-3.17
2022-12-11T07:38:34.143Z,-3.39
2022-12-11T07:41:02.206Z,-3.21
2022-12-11T07:43:28.944Z,-3.24
2022-12-11T07:45:55.754Z,-3.16
2022-12-11T07:48:22.381Z,-3.36
2022-12-11T07:50:49.059Z,-3.11
2022-12-11T07:53:15.619Z,-3.23
2022-12-11T07:55:42.279Z,-2.94
2022-12-11T07:58:08.885Z,-2.92
2022-12-11T08:00:35.475Z,-2.92
2022-12-11T08:03:02.120Z,-2.95
2022-12-11T08:05:29.036Z,-2.69
2022-12-11T08:07:55.833Z,-2.72
2022-12-11T08:10:23.050Z,-2.92
2022-12-11T08:12:49.607Z,-2.73
2022-12-11T08:15:16.159Z,-3.05
2022-12-11T08:17:42.701Z,-2.91
2022-12-11T08:20:09.891Z,-2.79
2022-12-11T08:22:36.480Z,-2.69
2022-12-11T08:25:03.299Z,-2.65
2022-12-11T08:27:29.991Z,-2.69
2022-12-11T08:29:56.574Z,-2.61
2022-12-11T08:32:23.151Z,-2.50
2022-12-11T08:34:51.734Z,-2.53
2022-12-11T08:37:18.400Z,-2.33
2022-12-11T08:39:47.124Z,-2.39
2022-12-11T08:42:13.758Z,-2.43
2022-12-11T08:44:40.382Z,-2.42
2022-12-11T08:47:09.950Z,-2.34
2022-12-11T08:49:36.936Z,-2.34
2022-12-11T08:52:06.877Z,-2.45
2022-12-11T08:54:33.603Z,-2.37
2022-12-11T08:57:00.311Z,-2.46
2022-12-11T08:59:26.851Z,-2.31
2022-12-11T09:01:55.538Z,-2.40
2022-12-11T09:04:23.248Z,-2.47
2022-12-11T09:06:50.218Z,-2.47
2022-12-11T09:09:17.109Z,-2.48
2022-12-11T09:11:43.925Z,-2.42
2022-12-11T09:14:10.613Z,-2.46
2022-12-11T09:16:40.735Z,-2.50
2022-12-11T09:19:11.163Z,-2.50
2022-12-11T09:21:37.819Z,-2.58
2022-12-11T09:24:04.822Z,-2.54
2022-12-11T09:26:32.994Z,-2.49
2022-12-11T09:28:59.674Z,-2.68
2022-12-11T09:31:29.331Z,-2.45
2022-12-11T09:33:58.422Z,-2.43
2022-12-11T09:36:25.929Z,-2.50
2022-12-11T09:38:52.639Z,-2.69
2022-12-11T09:41:22.155Z,-2.69
2022-12-11T09:43:51.635Z,-2.78
2022-12-11T09:46:20.755Z,-2.86
2022-12-11T09:48:50.157Z,-2.86
2022-12-11T09:51:39.896Z,-2.83
2022-12-11T09:54:06.740Z,-2.93
2022-12-11T09:56:42.543Z,-3.02
2022-12-11T09:59:35.039Z,-2.88
2022-12-11T10:02:26.327Z,-2.79
2022-12-11T10:04:59.250Z,-2.78
2022-12-11T10:07:57.104Z,-2.81
2022-12-11T10:10:51.711Z,-2.70
2022-12-11T10:13:33.388Z,-2.40
2022-12-11T10:16:23.009Z,-2.37
2022-12-11T10:18:50.417Z,-2.40
2022-12-11T10:21:18.750Z,-2.80
2022-12-11T10:23:56.744Z,-2.65
2022-12-11T10:26:23.912Z,-2.50
2022-12-11T10:28:50.796Z,-2.69
2022-12-11T10:31:29.314Z,-2.65
2022-12-11T10:34:03.200Z,-2.64
2022-12-11T10:36:34.343Z,-2.67
2022-12-11T10:39:01.723Z,-2.59
2022-12-11T10:41:39.847Z,-2.40
2022-12-11T10:44:20.385Z,-2.48
2022-12-11T10:46:48.090Z,-2.42
2022-12-11T10:49:24.261Z,-2.51
2022-12-11T10:51:52.632Z,-2.35
2022-12-11T10:54:35.727Z,-2.45
2022-12-11T10:57:03.892Z,-2.44
2022-12-11T10:59:44.139Z,-2.27
2022-12-11T11:02:26.064Z,-2.36
2022-12-11T11:04:55.274Z,-2.39
2022-12-11T11:07:25.698Z,-2.23
2022-12-11T11:10:03.931Z,-2.32
2022-12-11T11:12:30.665Z,-2.48
2022-12-11T11:15:07.090Z,-2.61
2022-12-11T11:17:51.291Z,-2.70
2022-12-11T11:20:25.370Z,-2.72
2022-12-11T11:22:54.069Z,-2.81
2022-12-11T11:25:23.445Z,-2.81
2022-12-11T11:27:59.387Z,-2.84
2022-12-11T11:30:25.895Z,-2.77
2022-12-11T11:32:56.735Z,-2.73
2022-12-11T11:35:27.141Z,-2.98
2022-12-11T11:38:00.694Z,-2.60
2022-12-11T11:40:31.081Z,-2.56
2022-12-11T11:43:43.833Z,-2.52
2022-12-11T11:46:14.491Z,-2.40
2022-12-11T11:49:07.603Z,-2.37
2022-12-11T11:51:38.926Z,-2.31
2022-12-11T11:54:30.412Z,-2.35
2022-12-11T11:57:00.827Z,-2.60
2022-12-11T11:59:33.715Z,-2.17
2022-12-11T12:02:13.929Z,-2.11
2022-12-11T12:04:42.239Z,-2.38
2022-12-11T12:07:31.100Z,-2.31
2022-12-11T12:10:36.908Z,-2.29
2022-12-11T12:13:30.203Z,-2.35
2022-12-11T12:15:59.634Z,-2.39
2022-12-11T12:18:58.104Z,-2.43
2022-12-11T12:21:35.122Z,-2.49
2022-12-11T12:24:23.560Z,-2.53
2022-12-11T12:26:57.430Z,-2.84
2022-12-11T12:29:44.302Z,-2.60
2022-12-11T12:32:29.093Z,-2.67
2022-12-11T12:34:59.628Z,-2.68
2022-12-11T12:37:47.819Z,-2.74
2022-12-11T12:40:31.958Z,-2.83
2022-12-11T12:43:17.200Z,-2.91
2022-12-11T12:45:59.247Z,-3.06
2022-12-11T12:48:28.211Z,-3.77
2022-12-11T12:50:56.954Z,-3.29
2022-12-11T12:53:28.755Z,-3.32
2022-12-11T12:55:59.067Z,-3.41
2022-12-11T12:58:25.609Z,-3.22
2022-12-11T13:00:52.631Z,-3.38
2022-12-11T13:03:35.819Z,-3.33
2022-12-11T13:06:07.816Z,-3.30
2022-12-11T13:08:42.754Z,-3.23
2022-12-11T13:11:12.487Z,-3.21
2022-12-11T13:13:42.247Z,-3.18
2022-12-11T13:16:17.997Z,-3.22
2022-12-11T13:18:49.887Z,-3.30
2022-12-11T13:21:28.651Z,-3.27
2022-12-11T13:24:12.704Z,-3.31
2022-12-11T13:26:40.107Z,-3.30
2022-12-11T13:29:06.978Z,-3.52
2022-12-11T13:31:36.495Z,-3.35
2022-12-11T13:34:20.718Z,-3.35
2022-12-11T13:36:52.630Z,-3.39
2022-12-11T13:39:27.631Z,-3.23
2022-12-11T13:41:59.592Z,-3.37
2022-12-11T13:44:41.784Z,-3.31
2022-12-11T13:47:14.523Z,-3.43
2022-12-11T13:49:44.472Z,-3.68
2022-12-11T13:52:18.881Z,-3.62
2022-12-11T13:54:51.599Z,-3.59
2022-12-11T13:57:21.542Z,-3.60
2022-12-11T13:59:53.026Z,-3.62
2022-12-11T14:02:26.602Z,-3.53
2022-12-11T14:04:58.227Z,-3.52
2022-12-11T14:07:32.321Z,-3.55
2022-12-11T14:10:33.523Z,-3.62
2022-12-11T14:13:04.820Z,-3.64
2022-12-11T14:15:37.900Z,-3.87
2022-12-11T14:18:05.571Z,-3.95
2022-12-11T14:20:34.119Z,-3.88
2022-12-11T14:23:25.967Z,-3.87
2022-12-11T14:25:58.791Z,-4.08
2022-12-11T14:28:27.907Z,-4.18
2022-12-11T14:30:59.759Z,-4.01
2022-12-11T14:33:32.773Z,-4.23
2022-12-11T14:36:01.354Z,-4.30
2022-12-11T14:38:43.041Z,-4.15
2022-12-11T14:41:23.741Z,-4.23
2022-12-11T14:43:57.518Z,-4.09
2022-12-11T14:46:32.799Z,-4.18
2022-12-11T14:49:03.756Z,-4.40
2022-12-11T14:51:38.721Z,-4.24
2022-12-11T14:54:06.716Z,-4.19
2022-12-11T14:56:34.146Z,-4.14
2022-12-11T14:59:06.868Z,-3.99
2022-12-11T15:01:36.648Z,-3.97
2022-12-11T15:04:22.724Z,-3.97
2022-12-11T15:06:51.856Z,-3.88
2022-12-11T15:09:27.802Z,-4.07
2022-12-11T15:11:59.962Z,-3.88
2022-12-11T15:14:27.355Z,-3.88
2022-12-11T15:16:57.328Z,-4.12
2022-12-11T15:19:32.080Z,-4.18
2022-12-11T15:22:04.691Z,-4.05
2022-12-11T15:24:42.958Z,-3.99
2022-12-11T15:27:33.537Z,-4.07
2022-12-11T15:30:00.250Z,-4.24
2022-12-11T15:32:33.703Z,-4.09
2022-12-11T15:35:00.635Z,-4.05
2022-12-11T15:37:33.094Z,-4.14
2022-12-11T15:40:02.186Z,-4.11
2022-12-11T15:42:36.079Z,-4.14
2022-12-11T15:45:06.115Z,-4.10
2022-12-11T15:47:32.998Z,-4.06
2022-12-11T15:50:15.612Z,-4.12
2022-12-11T15:52:42.649Z,-4.12
2022-12-11T15:55:09.897Z,-4.10
2022-12-11T15:57:37.245Z,-4.12
2022-12-11T16:00:06.656Z,-4.13
2022-12-11T16:02:33.945Z,-4.16
2022-12-11T16:05:00.605Z,-4.10
2022-12-11T16:07:27.221Z,-4.19
2022-12-11T16:09:53.948Z,-4.36
2022-12-11T16:12:20.780Z,-4.16
2022-12-11T16:14:47.458Z,-4.08
2022-12-11T16:17:15.225Z,-4.10
2022-12-11T16:19:43.446Z,-4.14
2022-12-11T16:22:12.320Z,-4.15
2022-12-11T16:24:39.907Z,-4.12
2022-12-11T16:27:07.910Z,-4.11
2022-12-11T16:29:36.734Z,-4.13
2022-12-11T16:32:04.584Z,-3.93
2022-12-11T16:34:31.108Z,-3.87
2022-12-11T16:36:58.803Z,-3.92
2022-12-11T16:39:26.109Z,-3.88
2022-12-11T16:41:52.790Z,-3.98
2022-12-11T16:44:21.168Z,-4.10
2022-12-11T16:46:48.305Z,-4.14
2022-12-11T16:49:15.946Z,-4.07
2022-12-11T16:51:43.006Z,-3.99
2022-12-11T16:54:11.748Z,-4.00
2022-12-11T16:56:39.027Z,-4.00
2022-12-11T16:59:06.366Z,-4.06
2022-12-11T17:01:33.825Z,-4.09
2022-12-11T17:04:00.656Z,-4.10
2022-12-11T17:06:27.640Z,-4.17
2022-12-11T17:08:54.286Z,-4.37
2022-12-11T17:11:24.935Z,-4.06
2022-12-11T17:13:55.835Z,-4.19
2022-12-11T17:16:24.927Z,-4.23
2022-12-11T17:18:52.465Z,-4.11
2022-12-11T17:21:20.863Z,-4.19
2022-12-11T17:23:47.625Z,-4.22
2022-12-11T17:26:16.843Z,-4.24
2022-12-11T17:28:43.658Z,-4.30
2022-12-11T17:31:16.016Z,-4.29
2022-12-11T17:33:46.595Z,-4.39
2022-12-11T17:36:20.722Z,-4.30
2022-12-11T17:38:48.425Z,-4.46
2022-12-11T17:41:20.512Z,-4.29
2022-12-11T17:43:53.079Z,-4.30
2022-12-11T17:46:21.054Z,-4.34
2022-12-11T17:48:48.743Z,-4.44
2022-12-11T17:51:21.241Z,-4.34
2022-12-11T17:53:53.661Z,-4.59
2022-12-11T17:56:20.617Z,-4.45
2022-12-11T17:58:47.290Z,-4.43
2022-12-11T18:01:14.042Z,-4.49
2022-12-11T18:03:41.645Z,-4.32
2022-12-11T18:06:12.767Z,-4.31
2022-12-11T18:08:39.880Z,-4.35
2022-12-11T18:11:08.757Z,-4.29
2022-12-11T18:13:43.371Z,-4.31
2022-12-11T18:16:17.466Z,-4.92
2022-12-11T18:18:45.900Z,-4.26
2022-12-11T18:21:18.404Z,-4.28
2022-12-11T18:23:45.620Z,-4.54
2022-12-11T18:26:16.200Z,-4.90
2022-12-11T18:28:43.761Z,-4.30
2022-12-11T18:31:11.422Z,-4.33
2022-12-11T18:33:39.442Z,-4.35
2022-12-11T18:36:06.625Z,-4.34
2022-12-11T18:38:34.782Z,-4.46
2022-12-11T18:41:07.934Z,-4.33
2022-12-11T18:46:52.933Z,-4.39
2022-12-11T18:49:22.095Z,-4.41
2022-12-11T18:51:48.827Z,-4.41
2022-12-11T18:54:25.883Z,-4.40
2022-12-11T18:56:53.517Z,-4.69
2022-12-11T18:59:26.706Z,-4.93
2022-12-11T19:01:53.556Z,-4.47
2022-12-11T19:04:20.497Z,-4.49
2022-12-11T19:06:48.223Z,-4.46
2022-12-11T19:09:15.147Z,-4.66
2022-12-11T19:11:48.279Z,-4.59
2022-12-11T19:14:22.143Z,-4.61
2022-12-11T19:16:50.917Z,-4.43
2022-12-11T19:19:20.856Z,-4.62
2022-12-11T19:21:49.145Z,-4.57
2022-12-11T19:24:23.524Z,-4.37
2022-12-11T19:26:51.651Z,-4.43
2022-12-11T19:29:25.493Z,-4.44
2022-12-11T19:31:58.190Z,-4.65
2022-12-11T19:34:25.443Z,-4.68
2022-12-11T19:36:53.797Z,-4.63
2022-12-11T19:39:20.547Z,-4.48
2022-12-11T19:41:49.061Z,-4.42
2022-12-11T19:44:16.830Z,-4.54
2022-12-11T19:46:43.507Z,-4.79
2022-12-11T19:49:11.647Z,-4.44
2022-12-11T19:51:40.370Z,-4.41
2022-12-11T19:54:10.192Z,-4.62
2022-12-11T19:56:41.373Z,-4.56
2022-12-11T19:59:11.949Z,-4.46
2022-12-11T20:01:38.886Z,-4.63
2022-12-11T20:04:10.823Z,-4.52
2022-12-11T20:06:43.001Z,-4.30
2022-12-11T20:09:12.192Z,-4.54
2022-12-11T20:11:41.295Z,-4.23
2022-12-11T20:14:09.689Z,-4.26
2022-12-11T20:17:09.110Z,-4.40
2022-12-11T20:19:29.993Z,-4.29
2022-12-11T20:21:59.599Z,-4.42
2022-12-11T20:24:26.567Z,-4.51
2022-12-11T20:27:02.495Z,-4.44
2022-12-11T20:29:32.343Z,-4.54
2022-12-11T20:32:01.468Z,-5.05
2022-12-11T20:34:28.190Z,-5.12
2022-12-11T20:36:56.924Z,-4.80
2022-12-11T20:39:41.660Z,-4.69
2022-12-11T20:42:09.799Z,-4.89
2022-12-11T20:44:44.166Z,-5.21
2022-12-11T20:47:15.772Z,-4.74
2022-12-11T20:49:42.475Z,-5.11
2022-12-11T20:52:10.064Z,-5.06
2022-12-11T20:54:41.903Z,-5.08
2022-12-11T20:57:09.107Z,-5.05
2022-12-11T20:59:36.914Z,-4.94
2022-12-11T21:02:05.687Z,-5.15
2022-12-11T21:04:38.043Z,-4.91
2022-12-11T21:07:05.808Z,-5.22
2022-12-11T21:09:32.362Z,-5.03
2022-12-11T21:12:01.254Z,-4.96
2022-12-11T21:14:28.685Z,-5.15
2022-12-11T21:16:55.845Z,-5.12
2022-12-11T21:19:25.903Z,-5.00
2022-12-11T21:21:52.958Z,-5.05
2022-12-11T21:24:26.649Z,-4.91
2022-12-11T21:26:56.287Z,-4.98
2022-12-11T21:29:26.873Z,-5.13
2022-12-11T21:32:02.394Z,-4.96
2022-12-11T21:34:33.691Z,-5.01
2022-12-11T21:37:01.412Z,-5.56
2022-12-11T21:39:28.851Z,-5.72
2022-12-11T21:41:55.733Z,-5.19
2022-12-11T21:47:09.060Z,-4.90
2022-12-11T21:49:35.678Z,-4.91
2022-12-11T21:52:03.273Z,-5.05
2022-12-11T21:54:30.033Z,-5.38
2022-12-11T21:56:57.031Z,-5.12
2022-12-11T21:59:23.558Z,-5.10
2022-12-11T22:01:50.550Z,-4.91
2022-12-11T22:04:17.606Z,-5.10
2022-12-11T22:06:47.056Z,-4.92
2022-12-11T22:09:15.844Z,-4.94
2022-12-11T22:11:42.969Z,-4.99
2022-12-11T22:14:12.789Z,-5.16
2022-12-11T22:16:42.028Z,-5.01
2022-12-11T22:19:09.653Z,-4.93
2022-12-11T22:21:36.628Z,-5.05
2022-12-11T22:24:09.061Z,-5.20
2022-12-11T22:26:35.868Z,-5.05
2022-12-11T22:29:02.521Z,-5.40
2022-12-11T22:32:08.152Z,-4.86
2022-12-11T22:34:40.665Z,-5.47
2022-12-11T22:38:56.004Z,-5.28
2022-12-11T22:40:53.696Z,-4.90
2022-12-11T22:43:20.616Z,-5.84
2022-12-11T22:45:50.426Z,-4.85
2022-12-11T22:48:18.463Z,-4.92
2022-12-11T22:50:45.072Z,-5.03
2022-12-11T22:53:11.794Z,-5.11
2022-12-11T22:55:40.050Z,-5.23
2022-12-11T22:58:07.108Z,-4.97
2022-12-11T23:00:34.165Z,-4.95
2022-12-11T23:03:02.184Z,-5.00
2022-12-11T23:05:29.326Z,-5.11
2022-12-11T23:07:56.034Z,-5.05
2022-12-11T23:10:22.839Z,-5.03
2022-12-11T23:12:50.730Z,-5.11
2022-12-11T23:15:18.773Z,-5.05
2022-12-11T23:17:45.641Z,-5.27
2022-12-11T23:20:12.591Z,-5.08
2022-12-11T23:22:39.199Z,-5.26
2022-12-11T23:25:06.263Z,-5.09
2022-12-11T23:27:33.227Z,-5.06
2022-12-11T23:29:59.930Z,-5.17
2022-12-11T23:32:26.618Z,-5.04
2022-12-11T23:34:54.221Z,-5.00
2022-12-11T23:37:21.208Z,-5.00
2022-12-11T23:39:47.937Z,-4.88
2022-12-11T23:42:15.696Z,-5.07
2022-12-11T23:44:43.467Z,-4.98
2022-12-11T23:47:10.172Z,-4.94
2022-12-11T23:49:36.794Z,-4.94
2022-12-11T23:52:03.417Z,-4.92
2022-12-11T23:54:30.033Z,-5.04
2022-12-11T23:56:56.654Z,-5.00
2022-12-11T23:59:23.459Z,-5.09
